createdAt,value
2022-10-05T00:00:49.360Z,726.00
2022-10-05T00:03:16.455Z,739.83
2022-10-05T00:05:45.681Z,734.70
2022-10-05T00:08:12.772Z,733.72
2022-10-05T00:10:43.309Z,732.58
2022-10-05T00:13:15.247Z,735.58
2022-10-05T00:15:42.770Z,729.42
2022-10-05T00:18:15.348Z,720.20
2022-10-05T00:20:43.146Z,711.63
2022-10-05T00:23:20.813Z,722.35
2022-10-05T00:25:48.358Z,731.47
2022-10-05T00:28:21.847Z,725.58
2022-10-05T00:30:49.011Z,736.20
2022-10-05T00:33:16.073Z,723.03
2022-10-05T00:35:43.196Z,697.42
2022-10-05T00:38:10.241Z,731.30
2022-10-05T00:40:37.308Z,719.97
2022-10-05T00:43:12.428Z,721.88
2022-10-05T00:45:51.194Z,737.53
2022-10-05T00:48:21.407Z,710.78
2022-10-05T00:51:10.335Z,714.78
2022-10-05T00:53:46.585Z,723.42
2022-10-05T00:56:19.482Z,719.80
2022-10-05T00:58:56.694Z,692.17
2022-10-05T01:01:26.706Z,724.33
2022-10-05T01:03:56.853Z,700.22
2022-10-05T01:06:23.984Z,702.15
2022-10-05T01:09:09.499Z,704.92
2022-10-05T01:11:44.383Z,705.63
2022-10-05T01:14:28.457Z,712.88
2022-10-05T01:16:58.307Z,688.60
2022-10-05T01:19:43.779Z,695.40
2022-10-05T01:22:10.843Z,715.25
2022-10-05T01:24:37.886Z,721.50
2022-10-05T01:27:17.186Z,703.90
2022-10-05T01:29:57.039Z,684.55
2022-10-05T01:32:45.418Z,705.85
2022-10-05T01:35:19.580Z,713.28
2022-10-05T01:37:52.585Z,719.75
2022-10-05T01:40:22.414Z,717.83
2022-10-05T01:43:07.622Z,676.85
2022-10-05T01:45:54.966Z,665.08
2022-10-05T01:48:32.763Z,686.88
2022-10-05T01:51:10.427Z,697.50
2022-10-05T01:53:56.327Z,694.10
2022-10-05T01:56:29.046Z,684.58
2022-10-05T01:59:16.375Z,699.10
2022-10-05T02:01:46.465Z,713.28
2022-10-05T02:04:42.694Z,699.50
2022-10-05T02:07:09.220Z,722.97
2022-10-05T02:09:40.370Z,719.47
2022-10-05T02:12:16.262Z,700.20
2022-10-05T02:14:44.557Z,707.03
2022-10-05T02:17:14.306Z,702.70
2022-10-05T02:19:50.903Z,720.30
2022-10-05T02:22:24.642Z,712.95
2022-10-05T02:24:54.601Z,694.15
2022-10-05T02:27:32.603Z,671.33
2022-10-05T02:30:03.696Z,674.65
2022-10-05T02:32:35.441Z,667.05
2022-10-05T02:35:04.677Z,698.35
2022-10-05T02:37:34.755Z,683.88
2022-10-05T02:40:20.510Z,672.65
2022-10-05T02:42:47.558Z,688.22
2022-10-05T02:45:14.633Z,641.17
2022-10-05T02:47:46.343Z,637.50
2022-10-05T02:50:13.406Z,651.50
2022-10-05T02:52:40.496Z,611.70
2022-10-05T02:55:15.814Z,655.40
2022-10-05T02:57:45.750Z,662.13
2022-10-05T03:00:17.917Z,649.42
2022-10-05T03:02:54.069Z,683.33
2022-10-05T03:05:24.479Z,661.80
2022-10-05T03:08:00.756Z,678.25
2022-10-05T03:10:27.877Z,507.23
2022-10-05T03:12:59.143Z,597.15
2022-10-05T03:15:36.927Z,556.13
2022-10-05T03:18:07.338Z,636.47
2022-10-05T03:20:44.771Z,672.00
2022-10-05T03:23:14.970Z,643.33
2022-10-05T03:25:46.057Z,599.55
2022-10-05T03:28:25.351Z,627.78
2022-10-05T03:30:52.517Z,642.60
2022-10-05T03:33:26.760Z,666.97
2022-10-05T03:35:53.825Z,609.70
2022-10-05T03:38:20.882Z,543.25
2022-10-05T03:41:05.162Z,551.80
2022-10-05T03:43:54.071Z,586.83
2022-10-05T03:46:26.943Z,659.70
2022-10-05T03:48:59.373Z,662.78
2022-10-05T03:51:32.119Z,665.33
2022-10-05T03:54:04.463Z,664.53
2022-10-05T03:56:36.984Z,639.10
2022-10-05T03:59:08.853Z,616.58
2022-10-05T04:01:56.141Z,584.80
2022-10-05T04:04:39.112Z,616.30
2022-10-05T04:07:09.379Z,597.42
2022-10-05T04:09:37.840Z,510.13
2022-10-05T04:12:22.618Z,475.92
2022-10-05T04:14:52.615Z,461.02
2022-10-05T04:17:32.240Z,534.05
2022-10-05T04:20:04.603Z,599.45
2022-10-05T04:22:36.140Z,597.45
2022-10-05T04:25:23.462Z,526.58
2022-10-05T04:27:53.470Z,519.20
2022-10-05T04:30:22.245Z,643.17
2022-10-05T04:32:59.632Z,665.63
2022-10-05T04:35:31.994Z,664.88
2022-10-05T04:38:02.092Z,622.38
2022-10-05T04:40:42.240Z,601.90
2022-10-05T04:43:09.309Z,643.92
2022-10-05T04:45:45.821Z,659.88
2022-10-05T04:48:25.739Z,568.40
2022-10-05T04:51:11.525Z,579.47
2022-10-05T04:53:53.919Z,592.90
2022-10-05T04:56:24.969Z,554.67
2022-10-05T04:58:58.249Z,540.47
2022-10-05T05:01:34.313Z,575.47
2022-10-05T05:04:01.421Z,598.97
2022-10-05T05:06:53.191Z,499.50
2022-10-05T05:09:23.360Z,501.73
2022-10-05T05:11:53.254Z,512.65
2022-10-05T05:14:26.841Z,541.28
2022-10-05T05:17:12.910Z,494.92
2022-10-05T05:19:56.467Z,545.28
2022-10-05T05:22:32.372Z,469.33
2022-10-05T05:25:22.133Z,576.72
2022-10-05T05:27:51.984Z,619.00
2022-10-05T05:30:29.931Z,647.90
2022-10-05T05:33:17.607Z,491.08
2022-10-05T05:35:44.763Z,641.47
2022-10-05T05:38:21.086Z,572.15
2022-10-05T05:40:48.130Z,432.88
2022-10-05T05:43:30.957Z,560.30
2022-10-05T05:46:00.466Z,438.00
2022-10-05T05:48:31.828Z,478.15
2022-10-05T05:51:03.138Z,289.30
2022-10-05T05:53:33.875Z,306.92
2022-10-05T05:56:06.057Z,335.73
2022-10-05T05:58:34.858Z,374.85
2022-10-05T06:01:04.815Z,373.20
2022-10-05T06:03:35.081Z,371.98
2022-10-05T06:06:04.483Z,303.73
2022-10-05T06:08:35.012Z,285.20
2022-10-05T06:11:23.075Z,328.40
2022-10-05T06:13:50.532Z,331.58
2022-10-05T06:16:23.227Z,335.05
2022-10-05T06:19:03.299Z,345.55
2022-10-05T06:21:30.383Z,362.55
2022-10-05T06:24:01.539Z,324.15
2022-10-05T06:26:40.634Z,359.02
2022-10-05T06:29:17.500Z,359.85
2022-10-05T06:31:58.580Z,344.40
2022-10-05T06:34:26.063Z,367.67
2022-10-05T06:37:08.155Z,330.45
2022-10-05T06:39:38.266Z,260.10
2022-10-05T06:42:24.155Z,288.67
2022-10-05T06:45:00.107Z,247.48
2022-10-05T06:47:32.397Z,235.23
2022-10-05T06:50:11.401Z,233.15
2022-10-05T06:52:57.573Z,270.58
2022-10-05T06:55:30.986Z,280.15
2022-10-05T06:58:06.019Z,297.50
2022-10-05T07:00:54.830Z,305.48
2022-10-05T07:03:21.946Z,224.50
2022-10-05T07:05:55.034Z,266.30
2022-10-05T07:08:30.223Z,286.10
2022-10-05T07:11:16.326Z,266.70
2022-10-05T07:13:51.384Z,276.92
2022-10-05T07:16:35.687Z,277.50
2022-10-05T07:19:10.123Z,284.63
2022-10-05T07:21:40.359Z,280.65
2022-10-05T07:24:10.218Z,264.15
2022-10-05T07:26:47.429Z,295.08
2022-10-05T07:29:43.782Z,269.30
2022-10-05T07:32:10.887Z,289.33
2022-10-05T07:34:59.000Z,151.13
2022-10-05T07:37:51.196Z,176.65
2022-10-05T07:40:22.805Z,174.65
2022-10-05T07:43:08.767Z,123.28
2022-10-05T07:45:46.868Z,168.43
2022-10-05T07:48:21.723Z,115.45
2022-10-05T07:51:07.885Z,166.48
2022-10-05T07:53:37.723Z,178.13
2022-10-05T07:56:13.430Z,99.53
2022-10-05T07:58:40.471Z,154.48
2022-10-05T08:01:29.626Z,118.68
2022-10-05T08:03:56.861Z,145.88
2022-10-05T08:06:34.699Z,104.05
2022-10-05T08:09:08.287Z,154.30
2022-10-05T08:11:40.344Z,151.20
2022-10-05T08:14:16.589Z,119.03
2022-10-05T08:16:44.040Z,157.85
2022-10-05T08:19:26.871Z,110.80
2022-10-05T08:22:01.036Z,143.50
2022-10-05T08:24:46.559Z,153.60
2022-10-05T08:27:21.215Z,130.43
2022-10-05T08:29:54.416Z,150.68
2022-10-05T08:32:41.112Z,170.50
2022-10-05T08:35:17.837Z,120.93
2022-10-05T08:37:45.818Z,55.33
2022-10-05T08:40:12.926Z,73.90
2022-10-05T08:42:49.059Z,136.85
2022-10-05T08:45:28.188Z,137.52
2022-10-05T08:47:55.222Z,49.88
2022-10-05T08:50:35.649Z,51.05
2022-10-05T08:53:25.876Z,75.55
2022-10-05T08:56:11.452Z,68.13
2022-10-05T08:58:41.552Z,78.03
2022-10-05T09:01:15.091Z,63.30
2022-10-05T09:03:59.521Z,74.03
2022-10-05T09:06:26.569Z,86.32
2022-10-05T09:08:53.707Z,143.55
2022-10-05T09:11:33.681Z,157.65
2022-10-05T09:14:06.096Z,119.30
2022-10-05T09:16:39.720Z,151.88
2022-10-05T09:19:12.584Z,51.83
2022-10-05T09:21:43.881Z,72.70
2022-10-05T09:26:56.715Z,122.00
2022-10-05T09:29:26.896Z,126.65
2022-10-05T09:32:11.715Z,70.90
2022-10-05T09:35:00.061Z,88.07
2022-10-05T09:37:46.283Z,96.50
2022-10-05T09:40:13.335Z,49.15
2022-10-05T09:42:48.081Z,61.08
2022-10-05T09:45:27.358Z,15.63
2022-10-05T09:48:13.169Z,67.70
2022-10-05T09:50:59.154Z,91.95
2022-10-05T09:53:40.719Z,75.47
2022-10-05T09:56:19.623Z,78.50
2022-10-05T09:58:49.747Z,88.15
2022-10-05T10:01:34.320Z,63.15
2022-10-05T10:04:01.632Z,42.90
2022-10-05T10:06:42.530Z,65.63
2022-10-05T10:09:09.565Z,68.20
2022-10-05T10:11:42.660Z,66.38
2022-10-05T10:14:22.362Z,38.22
2022-10-05T10:17:04.101Z,36.67
2022-10-05T10:19:49.680Z,93.55
2022-10-05T10:22:39.717Z,111.75
2022-10-05T10:25:37.809Z,56.38
2022-10-05T10:28:07.773Z,45.85
2022-10-05T10:30:47.308Z,77.15
2022-10-05T10:33:32.742Z,37.83
2022-10-05T10:36:35.274Z,30.73
2022-10-05T10:39:02.312Z,28.17
2022-10-05T10:41:47.632Z,44.50
2022-10-05T10:44:14.671Z,42.75
2022-10-05T10:46:48.337Z,50.83
2022-10-05T10:49:21.928Z,53.10
2022-10-05T10:52:07.470Z,39.13
2022-10-05T10:54:53.292Z,47.95
2022-10-05T10:57:33.882Z,54.42
2022-10-05T11:00:06.757Z,72.35
2022-10-05T11:02:37.285Z,88.35
2022-10-05T11:05:04.466Z,67.40
2022-10-05T11:07:51.855Z,71.20
2022-10-05T11:10:37.847Z,51.58
2022-10-05T11:13:11.029Z,60.15
2022-10-05T11:15:58.214Z,69.72
2022-10-05T11:18:47.863Z,83.32
2022-10-05T11:21:31.693Z,78.20
2022-10-05T11:24:07.773Z,63.92
2022-10-05T11:26:55.107Z,60.15
2022-10-05T11:29:22.184Z,90.25
2022-10-05T11:31:58.552Z,68.40
2022-10-05T11:34:37.564Z,119.03
2022-10-05T11:37:16.568Z,144.15
2022-10-05T11:40:01.769Z,189.40
2022-10-05T11:42:28.825Z,140.77
2022-10-05T11:45:08.005Z,224.52
2022-10-05T11:47:58.343Z,194.85
2022-10-05T11:50:48.056Z,238.75
2022-10-05T11:53:27.949Z,156.25
2022-10-05T11:56:09.551Z,189.20
2022-10-05T11:58:38.688Z,136.85
2022-10-05T12:01:17.679Z,210.30
2022-10-05T12:03:49.961Z,187.90
2022-10-05T12:06:27.113Z,118.85
2022-10-05T12:08:54.173Z,136.88
2022-10-05T12:11:41.467Z,155.27
2022-10-05T12:14:14.345Z,157.90
2022-10-05T12:16:58.805Z,163.02
2022-10-05T12:19:36.594Z,136.63
2022-10-05T12:22:30.168Z,182.65
2022-10-05T12:25:01.909Z,172.57
2022-10-05T12:27:32.424Z,179.98
2022-10-05T12:30:11.686Z,162.68
2022-10-05T12:33:01.869Z,213.05
2022-10-05T12:35:47.511Z,201.07
2022-10-05T12:38:18.320Z,209.73
2022-10-05T12:40:46.471Z,207.20
2022-10-05T12:43:19.738Z,175.40
2022-10-05T12:46:05.364Z,180.90
2022-10-05T12:48:40.006Z,112.20
2022-10-05T12:51:14.380Z,162.18
2022-10-05T12:53:49.694Z,209.95
2022-10-05T12:56:24.504Z,320.38
2022-10-05T12:59:04.471Z,216.15
2022-10-05T13:01:36.809Z,214.95
2022-10-05T13:04:07.031Z,151.75
2022-10-05T13:06:39.733Z,128.18
2022-10-05T13:09:11.323Z,131.05
2022-10-05T13:11:42.851Z,144.80
2022-10-05T13:14:28.639Z,139.13
2022-10-05T13:17:13.868Z,132.35
2022-10-05T13:19:57.939Z,138.00
2022-10-05T13:22:36.970Z,140.13
2022-10-05T13:25:03.990Z,171.95
2022-10-05T13:27:32.140Z,174.85
2022-10-05T13:30:03.519Z,215.88
2022-10-05T13:32:38.271Z,221.57
2022-10-05T13:35:11.365Z,245.13
2022-10-05T13:37:50.944Z,251.38
2022-10-05T13:40:21.670Z,202.73
2022-10-05T13:42:52.572Z,154.65
2022-10-05T13:45:24.618Z,185.95
2022-10-05T13:47:51.887Z,181.18
2022-10-05T13:50:32.773Z,188.95
2022-10-05T13:53:21.386Z,190.15
2022-10-05T13:55:53.982Z,207.60
2022-10-05T13:58:39.801Z,204.32
2022-10-05T14:01:09.215Z,207.88
2022-10-05T14:03:37.779Z,151.43
2022-10-05T14:06:13.025Z,181.52
2022-10-05T14:08:48.405Z,132.85
2022-10-05T14:11:26.526Z,135.48
2022-10-05T14:14:01.775Z,150.85
2022-10-05T14:16:29.502Z,168.13
2022-10-05T14:18:59.370Z,129.77
2022-10-05T14:21:27.602Z,135.45
2022-10-05T14:23:56.355Z,151.15
2022-10-05T14:26:26.270Z,154.85
2022-10-05T14:29:12.014Z,166.85
2022-10-05T14:31:47.985Z,192.55
2022-10-05T14:34:29.317Z,180.00
2022-10-05T14:39:27.921Z,215.07
2022-10-05T14:41:54.980Z,217.40
2022-10-05T14:44:25.089Z,206.13
2022-10-05T14:46:58.695Z,201.13
2022-10-05T14:49:36.026Z,211.85
2022-10-05T14:52:23.151Z,217.32
2022-10-05T14:55:00.852Z,161.00
2022-10-05T14:57:40.737Z,153.38
2022-10-05T15:00:18.591Z,172.25
2022-10-05T15:02:48.771Z,278.23
2022-10-05T15:05:17.958Z,275.63
2022-10-05T15:07:48.127Z,360.95
2022-10-05T15:10:29.565Z,372.92
2022-10-05T15:15:27.064Z,219.55
2022-10-05T15:18:01.914Z,265.50
2022-10-05T15:20:37.771Z,270.20
2022-10-05T15:23:24.821Z,243.20
2022-10-05T15:26:01.891Z,241.95
2022-10-05T15:28:49.207Z,208.48
2022-10-05T15:31:37.884Z,258.08
2022-10-05T15:34:09.911Z,342.08
2022-10-05T15:36:41.413Z,163.10
2022-10-05T15:39:27.203Z,244.18
2022-10-05T15:41:55.225Z,239.77
2022-10-05T15:44:36.216Z,179.98
2022-10-05T15:47:26.354Z,236.10
2022-10-05T15:50:12.250Z,218.55
2022-10-05T15:52:58.850Z,235.57
2022-10-05T15:55:28.656Z,258.55
2022-10-05T15:58:01.787Z,259.38
2022-10-05T16:00:30.272Z,240.20
2022-10-05T16:03:16.031Z,424.55
2022-10-05T16:06:07.341Z,438.55
2022-10-05T16:08:54.247Z,358.63
2022-10-05T16:11:30.638Z,330.60
2022-10-05T16:14:20.743Z,501.70
2022-10-05T16:16:53.135Z,306.17
2022-10-05T16:19:29.225Z,386.08
2022-10-05T16:22:08.201Z,427.05
2022-10-05T16:24:48.645Z,437.15
2022-10-05T16:27:34.155Z,438.15
2022-10-05T16:30:08.614Z,371.80
2022-10-05T16:32:59.207Z,333.58
2022-10-05T16:35:38.404Z,298.42
2022-10-05T16:38:11.641Z,328.85
2022-10-05T16:40:45.134Z,277.80
2022-10-05T16:43:26.777Z,229.80
2022-10-05T16:45:59.171Z,226.27
2022-10-05T16:48:29.371Z,198.93
2022-10-05T16:50:56.414Z,204.43
2022-10-05T16:53:31.731Z,201.38
2022-10-05T16:56:02.476Z,170.88
2022-10-05T16:58:41.264Z,238.93
2022-10-05T17:01:27.286Z,253.68
2022-10-05T17:04:13.294Z,170.18
2022-10-05T17:07:07.453Z,157.10
2022-10-05T17:09:54.759Z,157.93
2022-10-05T17:12:26.645Z,162.68
2022-10-05T17:15:00.378Z,119.82
2022-10-05T17:17:33.663Z,121.28
2022-10-05T17:20:19.637Z,123.35
2022-10-05T17:22:56.214Z,194.82
2022-10-05T17:25:35.705Z,188.63
2022-10-05T17:28:21.375Z,130.68
2022-10-05T17:30:53.767Z,202.25
2022-10-05T17:33:29.036Z,141.48
2022-10-05T17:35:58.182Z,140.50
2022-10-05T17:38:45.214Z,133.25
2022-10-05T17:41:25.815Z,150.70
2022-10-05T17:44:10.972Z,136.10
2022-10-05T17:46:39.154Z,135.55
2022-10-05T17:49:06.714Z,118.10
2022-10-05T17:51:52.416Z,276.38
2022-10-05T17:54:38.521Z,230.15
2022-10-05T17:57:05.555Z,227.63
2022-10-05T17:59:49.102Z,224.27
2022-10-05T18:02:38.432Z,252.55
2022-10-05T18:05:05.602Z,288.52
2022-10-05T18:07:36.485Z,231.68
2022-10-05T18:10:12.489Z,217.68
2022-10-05T18:12:46.846Z,222.13
2022-10-05T18:15:21.217Z,226.10
2022-10-05T18:18:01.368Z,205.75
2022-10-05T18:20:32.613Z,220.45
2022-10-05T18:23:09.703Z,210.93
2022-10-05T18:25:45.879Z,148.32
2022-10-05T18:28:12.973Z,253.38
2022-10-05T18:30:55.518Z,218.80
2022-10-05T18:33:43.646Z,275.77
2022-10-05T18:36:13.458Z,240.48
2022-10-05T18:38:43.619Z,244.45
2022-10-05T18:41:17.428Z,178.07
2022-10-05T18:43:50.983Z,170.90
2022-10-05T18:46:32.329Z,203.82
2022-10-05T18:49:10.621Z,179.10
2022-10-05T18:51:37.744Z,180.23
2022-10-05T18:54:10.579Z,214.05
2022-10-05T18:56:41.773Z,246.35
2022-10-05T18:59:27.659Z,249.95
2022-10-05T19:02:02.730Z,264.17
2022-10-05T19:04:54.530Z,243.73
2022-10-05T19:09:58.006Z,259.88
2022-10-05T19:12:41.617Z,243.45
2022-10-05T19:15:27.978Z,256.13
2022-10-05T19:18:07.516Z,345.33
2022-10-05T19:20:36.996Z,366.15
2022-10-05T19:23:13.953Z,272.83
2022-10-05T19:25:41.142Z,279.17
2022-10-05T19:28:13.786Z,346.10
2022-10-05T19:30:59.573Z,276.38
2022-10-05T19:33:38.723Z,335.65
2022-10-05T19:36:11.666Z,309.35
2022-10-05T19:38:44.522Z,280.52
2022-10-05T19:41:14.938Z,285.75
2022-10-05T19:44:00.963Z,258.95
2022-10-05T19:46:34.105Z,246.13
2022-10-05T19:49:01.384Z,146.73
2022-10-05T19:51:32.287Z,190.32
2022-10-05T19:54:03.617Z,191.73
2022-10-05T19:56:34.605Z,236.27
2022-10-05T19:59:13.172Z,254.57
2022-10-05T20:01:40.625Z,218.50
2022-10-05T20:04:09.390Z,226.40
2022-10-05T20:06:39.387Z,217.32
2022-10-05T20:09:20.090Z,192.80
2022-10-05T20:11:54.093Z,237.47
2022-10-05T20:14:31.773Z,292.65
2022-10-05T20:17:35.017Z,491.50
2022-10-05T20:20:23.633Z,542.95
2022-10-05T20:22:50.723Z,506.83
2022-10-05T20:25:17.785Z,290.45
2022-10-05T20:27:46.485Z,282.50
2022-10-05T20:30:16.440Z,275.13
2022-10-05T20:32:45.556Z,284.60
2022-10-05T20:35:12.823Z,311.58
2022-10-05T20:37:40.268Z,327.88
2022-10-05T20:40:07.766Z,301.60
2022-10-05T20:42:35.090Z,315.60
2022-10-05T20:45:02.497Z,328.00
2022-10-05T20:47:29.605Z,319.42
2022-10-05T20:49:56.762Z,320.35
2022-10-05T20:52:23.921Z,291.33
2022-10-05T20:54:53.647Z,284.73
2022-10-05T20:57:21.310Z,304.08
2022-10-05T20:59:48.488Z,318.27
2022-10-05T21:02:15.573Z,312.65
2022-10-05T21:04:47.397Z,310.20
2022-10-05T21:07:19.806Z,302.60
2022-10-05T21:09:47.002Z,280.00
2022-10-05T21:12:16.195Z,285.92
2022-10-05T21:14:43.402Z,323.60
2022-10-05T21:17:11.921Z,270.05
2022-10-05T21:19:40.175Z,296.05
2022-10-05T21:22:08.226Z,293.15
2022-10-05T21:24:36.328Z,292.95
2022-10-05T21:27:03.876Z,277.70
2022-10-05T21:29:31.577Z,295.02
2022-10-05T21:31:58.707Z,274.77
2022-10-05T21:34:26.076Z,275.33
2022-10-05T21:36:53.157Z,306.52
2022-10-05T21:39:20.313Z,308.25
2022-10-05T21:41:49.638Z,275.25
2022-10-05T21:44:16.978Z,288.58
2022-10-05T21:46:44.414Z,304.08
2022-10-05T21:49:14.110Z,306.00
2022-10-05T21:51:43.413Z,326.80
2022-10-05T21:54:12.315Z,303.65
2022-10-05T21:56:41.239Z,326.90
2022-10-05T21:59:09.849Z,327.92
2022-10-05T22:01:36.978Z,311.75
2022-10-05T22:04:07.711Z,332.52
2022-10-05T22:06:35.529Z,261.77
2022-10-05T22:09:03.040Z,278.50
2022-10-05T22:11:31.319Z,295.70
2022-10-05T22:14:02.496Z,278.65
2022-10-05T22:16:34.285Z,305.23
2022-10-05T22:19:11.246Z,323.98
2022-10-05T22:21:41.553Z,293.30
2022-10-05T22:24:10.580Z,309.08
2022-10-05T22:26:37.762Z,307.45
2022-10-05T22:29:04.924Z,454.13
2022-10-05T22:31:32.010Z,419.92
2022-10-05T22:33:59.119Z,283.58
2022-10-05T22:36:26.400Z,300.52
2022-10-05T22:38:53.458Z,265.40
2022-10-05T22:41:20.818Z,282.42
2022-10-05T22:43:50.071Z,244.50
2022-10-05T22:46:17.430Z,248.30
2022-10-05T22:48:44.571Z,250.90
2022-10-05T22:51:11.648Z,247.52
2022-10-05T22:53:38.791Z,259.52
2022-10-05T22:56:09.895Z,247.32
2022-10-05T22:58:37.287Z,282.98
2022-10-05T23:01:09.189Z,297.50
2022-10-05T23:03:36.369Z,263.83
2022-10-05T23:06:05.271Z,278.38
2022-10-05T23:08:33.158Z,309.52
2022-10-05T23:11:03.731Z,354.90
2022-10-05T23:13:31.182Z,376.20
2022-10-05T23:15:58.258Z,359.63
2022-10-05T23:18:26.069Z,287.63
2022-10-05T23:20:56.501Z,271.75
2022-10-05T23:23:23.913Z,323.92
2022-10-05T23:25:50.985Z,289.20
2022-10-05T23:28:18.090Z,274.52
2022-10-05T23:30:45.333Z,293.05
2022-10-05T23:33:12.619Z,295.75
2022-10-05T23:35:39.681Z,278.55
2022-10-05T23:38:06.821Z,303.92
2022-10-05T23:40:33.884Z,300.17
2022-10-05T23:43:01.103Z,300.48
2022-10-05T23:45:28.319Z,319.38
2022-10-05T23:47:55.399Z,325.08
2022-10-05T23:50:24.876Z,547.58
2022-10-05T23:52:51.990Z,675.22
2022-10-05T23:55:19.149Z,437.55
2022-10-05T23:57:46.229Z,353.67
